createdAt,value
2022-08-28T00:00:36.925Z,5.13
2022-08-28T00:03:04.400Z,5.13
2022-08-28T00:05:34.258Z,5.47
2022-08-28T00:08:01.762Z,5.07
2022-08-28T00:10:29.417Z,5.30
2022-08-28T00:12:57.528Z,5.10
2022-08-28T00:15:28.326Z,5.40
2022-08-28T00:17:55.413Z,4.95
2022-08-28T00:20:23.213Z,4.30
2022-08-28T00:22:50.502Z,4.72
2022-08-28T00:25:19.870Z,5.03
2022-08-28T00:27:55.636Z,5.80
2022-08-28T00:30:43.745Z,5.43
2022-08-28T00:33:15.462Z,5.43
2022-08-28T00:35:42.872Z,5.00
2022-08-28T00:38:10.951Z,5.53
2022-08-28T00:40:40.215Z,5.07
2022-08-28T00:43:07.617Z,5.65
2022-08-28T00:45:39.317Z,4.95
2022-08-28T00:48:06.388Z,5.10
2022-08-28T00:51:00.648Z,5.20
2022-08-28T00:53:32.795Z,5.82
2022-08-28T00:56:07.006Z,5.20
2022-08-28T00:58:43.538Z,5.43
2022-08-28T01:01:11.125Z,5.50
2022-08-28T01:03:38.134Z,5.65
2022-08-28T01:06:05.999Z,5.60
2022-08-28T01:08:35.357Z,5.65
2022-08-28T01:11:05.506Z,5.53
2022-08-28T01:13:33.554Z,5.65
2022-08-28T01:16:01.404Z,4.63
2022-08-28T01:18:28.869Z,5.47
2022-08-28T01:21:03.914Z,5.22
2022-08-28T01:23:54.464Z,4.95
2022-08-28T01:26:22.198Z,5.05
2022-08-28T01:28:49.031Z,5.22
2022-08-28T01:31:17.180Z,5.32
2022-08-28T01:33:46.125Z,4.88
2022-08-28T01:36:13.660Z,4.88
2022-08-28T01:38:42.448Z,4.78
2022-08-28T01:41:09.497Z,4.95
2022-08-28T01:43:36.603Z,5.13
2022-08-28T01:46:05.881Z,4.55
2022-08-28T01:48:36.250Z,4.50
2022-08-28T01:51:04.271Z,4.65
2022-08-28T01:53:33.061Z,4.70
2022-08-28T01:56:04.622Z,4.55
2022-08-28T01:58:34.916Z,4.47
2022-08-28T02:01:09.905Z,4.75
2022-08-28T02:03:36.939Z,4.90
2022-08-28T02:06:03.806Z,4.53
2022-08-28T02:08:30.452Z,5.10
2022-08-28T02:10:57.104Z,4.45
2022-08-28T02:13:25.708Z,4.80
2022-08-28T02:15:52.707Z,6.22
2022-08-28T02:18:19.446Z,4.72
2022-08-28T02:20:46.636Z,5.00
2022-08-28T02:23:13.766Z,6.00
2022-08-28T02:25:40.709Z,5.28
2022-08-28T02:28:07.740Z,6.10
2022-08-28T02:30:35.512Z,5.75
2022-08-28T02:33:02.603Z,5.10
2022-08-28T02:35:31.266Z,5.38
2022-08-28T02:37:58.647Z,5.47
2022-08-28T02:40:27.645Z,6.72
2022-08-28T02:42:54.378Z,6.15
2022-08-28T02:45:21.150Z,4.97
2022-08-28T02:47:48.309Z,5.63
2022-08-28T02:50:17.402Z,5.70
2022-08-28T02:52:44.079Z,6.05
2022-08-28T02:55:14.063Z,5.97
2022-08-28T02:57:41.493Z,5.57
2022-08-28T03:00:12.105Z,5.80
2022-08-28T03:02:40.397Z,5.72
2022-08-28T03:05:07.963Z,6.85
2022-08-28T03:07:34.823Z,6.20
2022-08-28T03:10:01.977Z,6.63
2022-08-28T03:12:28.624Z,7.35
2022-08-28T03:14:55.908Z,6.85
2022-08-28T03:17:22.842Z,7.40
2022-08-28T03:19:50.235Z,6.88
2022-08-28T03:22:38.694Z,7.03
2022-08-28T03:25:06.880Z,6.38
2022-08-28T03:27:33.972Z,6.70
2022-08-28T03:30:02.756Z,5.60
2022-08-28T03:32:29.758Z,6.30
2022-08-28T03:34:56.387Z,5.88
2022-08-28T03:37:23.137Z,6.30
2022-08-28T03:39:49.903Z,7.20
2022-08-28T03:42:16.562Z,7.38
2022-08-28T03:44:43.240Z,6.55
2022-08-28T03:47:10.598Z,6.70
2022-08-28T03:49:37.498Z,6.95
2022-08-28T03:52:04.365Z,6.47
2022-08-28T03:54:31.666Z,6.75
2022-08-28T03:56:58.661Z,6.85
2022-08-28T03:59:29.731Z,6.97
2022-08-28T04:02:00.323Z,7.68
2022-08-28T04:04:27.012Z,6.57
2022-08-28T04:06:53.665Z,6.10
2022-08-28T04:09:20.316Z,7.57
2022-08-28T04:11:46.952Z,7.13
2022-08-28T04:14:13.918Z,6.43
2022-08-28T04:16:41.434Z,6.18
2022-08-28T04:19:08.212Z,6.40
2022-08-28T04:21:34.917Z,6.43
2022-08-28T04:24:01.645Z,7.10
2022-08-28T04:26:29.323Z,6.70
2022-08-28T04:28:56.394Z,6.82
2022-08-28T04:31:32.483Z,6.50
2022-08-28T04:34:05.398Z,5.90
2022-08-28T04:36:36.122Z,5.78
2022-08-28T04:39:06.026Z,6.43
2022-08-28T04:41:32.885Z,6.43
2022-08-28T04:43:59.521Z,5.60
2022-08-28T04:46:26.214Z,6.50
2022-08-28T04:48:58.177Z,6.47
2022-08-28T04:51:24.774Z,5.97
2022-08-28T04:53:51.399Z,5.68
2022-08-28T04:56:18.263Z,6.32
2022-08-28T04:58:45.531Z,6.03
2022-08-28T05:01:21.447Z,6.72
2022-08-28T05:03:52.056Z,6.53
2022-08-28T05:06:18.753Z,7.28
2022-08-28T05:08:45.407Z,5.53
2022-08-28T05:11:18.492Z,6.45
2022-08-28T05:14:01.272Z,5.78
2022-08-28T05:16:27.982Z,5.95
2022-08-28T05:18:54.682Z,6.53
2022-08-28T05:21:22.985Z,6.50
2022-08-28T05:23:53.319Z,6.35
2022-08-28T05:26:20.351Z,7.05
2022-08-28T05:28:48.476Z,6.18
2022-08-28T05:31:18.886Z,6.30
2022-08-28T05:33:47.386Z,6.15
2022-08-28T05:36:15.155Z,5.70
2022-08-28T05:38:42.416Z,6.65
2022-08-28T05:41:09.073Z,6.70
2022-08-28T05:43:36.785Z,6.68
2022-08-28T05:46:08.561Z,6.90
2022-08-28T05:48:39.058Z,6.75
2022-08-28T05:51:12.697Z,6.35
2022-08-28T05:53:41.733Z,8.40
2022-08-28T05:56:09.527Z,5.57
2022-08-28T05:58:37.329Z,6.22
2022-08-28T06:01:12.793Z,5.65
2022-08-28T06:03:41.422Z,5.65
2022-08-28T06:06:10.112Z,6.30
2022-08-28T06:08:37.297Z,6.47
2022-08-28T06:11:05.287Z,6.03
2022-08-28T06:13:34.603Z,6.03
2022-08-28T06:16:03.137Z,5.78
2022-08-28T06:18:30.219Z,5.32
2022-08-28T06:21:02.466Z,5.30
2022-08-28T06:25:56.009Z,5.28
2022-08-28T06:28:24.784Z,4.63
2022-08-28T06:31:17.986Z,4.45
2022-08-28T06:33:40.221Z,4.43
2022-08-28T06:36:07.847Z,4.03
2022-08-28T06:38:34.826Z,4.18
2022-08-28T06:41:01.611Z,4.70
2022-08-28T06:43:29.460Z,4.50
2022-08-28T06:45:57.628Z,4.63
2022-08-28T06:48:27.851Z,4.60
2022-08-28T06:50:56.989Z,4.10
2022-08-28T06:53:30.495Z,4.57
2022-08-28T06:56:06.445Z,4.32
2022-08-28T06:58:35.234Z,3.95
2022-08-28T07:01:10.593Z,4.38
2022-08-28T07:03:44.220Z,4.25
2022-08-28T07:08:40.399Z,3.55
2022-08-28T07:11:14.853Z,4.15
2022-08-28T07:13:45.524Z,3.90
2022-08-28T07:16:14.748Z,3.47
2022-08-28T07:18:42.185Z,3.05
2022-08-28T07:21:12.362Z,3.10
2022-08-28T07:23:40.626Z,3.45
2022-08-28T07:26:10.033Z,2.92
2022-08-28T07:28:37.679Z,3.40
2022-08-28T07:31:10.264Z,3.15
2022-08-28T07:33:38.256Z,3.00
2022-08-28T07:36:08.154Z,3.28
2022-08-28T07:38:42.756Z,3.53
2022-08-28T07:41:24.794Z,3.33
2022-08-28T07:44:10.578Z,3.55
2022-08-28T07:46:39.083Z,3.40
2022-08-28T07:49:08.142Z,3.40
2022-08-28T07:51:35.719Z,3.65
2022-08-28T07:54:03.974Z,3.38
2022-08-28T07:56:30.818Z,3.47
2022-08-28T07:58:58.809Z,3.25
2022-08-28T08:01:27.066Z,3.28
2022-08-28T08:03:55.916Z,3.33
2022-08-28T08:11:27.841Z,3.03
2022-08-28T08:14:05.308Z,3.05
2022-08-28T08:16:38.974Z,2.60
2022-08-28T08:19:09.869Z,2.25
2022-08-28T08:21:37.281Z,2.63
2022-08-28T08:24:04.468Z,2.55
2022-08-28T08:26:31.303Z,2.55
2022-08-28T08:28:58.902Z,2.40
2022-08-28T08:31:32.462Z,2.47
2022-08-28T08:34:01.993Z,2.42
2022-08-28T08:36:32.387Z,2.97
2022-08-28T08:39:00.676Z,2.72
2022-08-28T08:41:56.939Z,3.10
2022-08-28T08:44:36.183Z,2.40
2022-08-28T08:47:46.609Z,2.67
2022-08-28T08:50:18.773Z,2.85
2022-08-28T08:53:24.546Z,3.10
2022-08-28T08:55:54.110Z,3.03
2022-08-28T08:58:31.655Z,3.08
2022-08-28T09:01:17.501Z,2.85
2022-08-28T09:04:03.690Z,2.55
2022-08-28T09:06:50.156Z,3.00
2022-08-28T09:09:41.010Z,3.17
2022-08-28T09:12:13.379Z,3.30
2022-08-28T09:15:14.373Z,3.30
2022-08-28T09:17:47.826Z,3.33
2022-08-28T09:20:32.444Z,3.65
2022-08-28T09:23:00.545Z,2.90
2022-08-28T09:25:55.299Z,3.10
2022-08-28T09:28:41.470Z,3.50
2022-08-28T09:31:13.663Z,3.58
2022-08-28T09:36:33.720Z,3.25
2022-08-28T09:39:30.850Z,2.95
2022-08-28T09:42:38.133Z,3.30
2022-08-28T09:45:21.266Z,2.95
2022-08-28T09:47:55.465Z,2.88
2022-08-28T09:50:37.985Z,3.40
2022-08-28T09:56:11.141Z,3.00
2022-08-28T09:58:57.215Z,3.47
2022-08-28T10:01:55.718Z,2.75
2022-08-28T10:04:41.449Z,3.22
2022-08-28T10:07:47.135Z,3.40
2022-08-28T10:10:48.782Z,3.03
2022-08-28T10:13:21.008Z,2.97
2022-08-28T10:19:02.696Z,3.33
2022-08-28T10:21:45.042Z,2.90
2022-08-28T10:27:06.259Z,2.90
2022-08-28T10:30:08.806Z,2.92
2022-08-28T10:32:59.973Z,2.67
2022-08-28T10:36:03.547Z,2.42
2022-08-28T10:38:40.073Z,3.08
2022-08-28T10:41:29.066Z,2.72
2022-08-28T10:44:01.973Z,2.83
2022-08-28T10:46:45.113Z,2.80
2022-08-28T10:49:31.957Z,2.95
2022-08-28T10:52:30.711Z,3.10
2022-08-28T10:55:07.933Z,2.95
2022-08-28T10:57:43.894Z,2.50
2022-08-28T11:00:23.623Z,2.88
2022-08-28T11:02:55.411Z,3.22
2022-08-28T11:05:23.937Z,2.80
2022-08-28T11:07:55.847Z,2.30
2022-08-28T11:10:56.217Z,2.47
2022-08-28T11:13:54.888Z,2.35
2022-08-28T11:16:42.030Z,2.58
2022-08-28T11:19:51.674Z,3.03
2022-08-28T11:22:34.438Z,2.83
2022-08-28T11:25:35.657Z,2.78
2022-08-28T11:28:42.732Z,2.65
2022-08-28T11:31:31.749Z,2.80
2022-08-28T11:34:00.162Z,2.80
2022-08-28T11:36:46.957Z,2.60
2022-08-28T11:39:22.853Z,2.67
2022-08-28T11:42:32.342Z,3.03
2022-08-28T11:44:59.921Z,2.75
2022-08-28T11:47:47.652Z,2.90
2022-08-28T11:50:27.494Z,2.70
2022-08-28T11:53:52.682Z,2.65
2022-08-28T12:02:54.997Z,2.58
2022-08-28T12:05:39.396Z,2.03
2022-08-28T12:08:06.089Z,2.80
2022-08-28T12:10:54.367Z,2.40
2022-08-28T12:13:52.413Z,2.95
2022-08-28T12:16:19.140Z,2.35
2022-08-28T12:19:03.847Z,2.80
2022-08-28T12:21:38.669Z,2.95
2022-08-28T12:24:18.863Z,3.22
2022-08-28T12:26:51.545Z,3.08
2022-08-28T12:29:24.695Z,2.65
2022-08-28T12:32:29.386Z,3.33
2022-08-28T12:35:12.945Z,3.40
2022-08-28T12:37:51.870Z,3.70
2022-08-28T12:40:37.450Z,3.40
2022-08-28T12:43:07.891Z,3.08
2022-08-28T12:45:58.671Z,3.28
2022-08-28T12:48:54.358Z,3.20
2022-08-28T12:51:35.488Z,3.83
2022-08-28T12:54:05.782Z,3.10
2022-08-28T12:56:35.347Z,3.20
2022-08-28T12:59:27.256Z,3.20
2022-08-28T13:01:54.748Z,2.83
2022-08-28T13:04:45.441Z,2.47
2022-08-28T13:07:15.793Z,2.25
2022-08-28T13:09:50.232Z,2.50
2022-08-28T13:12:55.281Z,2.83
2022-08-28T13:15:50.382Z,3.03
2022-08-28T13:19:05.504Z,2.72
2022-08-28T13:21:36.201Z,2.80
2022-08-28T13:24:45.955Z,2.90
2022-08-28T13:27:23.525Z,2.78
2022-08-28T13:30:20.916Z,2.90
2022-08-28T13:33:00.658Z,2.60
2022-08-28T13:35:48.417Z,3.13
2022-08-28T13:38:18.014Z,2.78
2022-08-28T13:40:59.409Z,2.88
2022-08-28T13:43:29.097Z,3.30
2022-08-28T13:45:56.106Z,3.30
2022-08-28T13:48:25.624Z,3.45
2022-08-28T13:50:58.634Z,2.88
2022-08-28T13:53:25.461Z,2.30
2022-08-28T13:55:52.099Z,2.60
2022-08-28T13:58:19.121Z,2.75
2022-08-28T14:00:49.540Z,2.28
2022-08-28T14:03:35.220Z,2.83
2022-08-28T14:06:14.182Z,2.70
2022-08-28T14:08:43.317Z,2.55
2022-08-28T14:11:12.870Z,2.75
2022-08-28T14:13:40.451Z,3.97
2022-08-28T14:16:16.776Z,3.08
2022-08-28T14:18:43.616Z,2.65
2022-08-28T14:21:10.257Z,2.95
2022-08-28T14:23:36.927Z,3.38
2022-08-28T14:26:05.746Z,3.75
2022-08-28T14:28:32.475Z,3.22
2022-08-28T14:30:59.346Z,2.90
2022-08-28T14:33:25.993Z,2.92
2022-08-28T14:35:52.846Z,2.70
2022-08-28T14:38:19.594Z,2.92
2022-08-28T14:40:46.339Z,3.15
2022-08-28T14:43:14.469Z,4.10
2022-08-28T14:45:49.554Z,3.38
2022-08-28T14:48:19.126Z,2.42
2022-08-28T14:50:48.048Z,3.30
2022-08-28T14:53:15.830Z,2.83
2022-08-28T14:55:48.104Z,3.65
2022-08-28T15:00:46.535Z,3.70
2022-08-28T15:03:14.341Z,3.33
2022-08-28T15:05:42.195Z,4.20
2022-08-28T15:08:10.491Z,4.57
2022-08-28T15:10:39.327Z,3.60
2022-08-28T15:13:10.732Z,3.22
2022-08-28T15:15:42.682Z,3.78
2022-08-28T15:18:10.837Z,3.40
2022-08-28T15:20:46.353Z,3.53
2022-08-28T15:23:15.418Z,3.70
2022-08-28T15:25:51.770Z,3.55
2022-08-28T15:28:19.283Z,3.30
2022-08-28T15:30:49.434Z,3.30
2022-08-28T15:33:17.148Z,3.58
2022-08-28T15:35:45.214Z,3.65
2022-08-28T15:38:13.835Z,3.20
2022-08-28T15:41:00.697Z,3.30
2022-08-28T15:43:30.631Z,3.78
2022-08-28T15:45:57.668Z,3.70
2022-08-28T15:48:25.552Z,3.55
2022-08-28T15:50:54.447Z,3.90
2022-08-28T15:53:24.423Z,4.07
2022-08-28T15:55:51.383Z,3.70
2022-08-28T15:58:21.678Z,3.75
2022-08-28T16:00:51.229Z,4.10
2022-08-28T16:03:21.379Z,4.47
2022-08-28T16:05:49.502Z,5.00
2022-08-28T16:08:19.095Z,4.68
2022-08-28T16:10:55.942Z,4.45
2022-08-28T16:13:25.392Z,3.88
2022-08-28T16:15:53.052Z,4.05
2022-08-28T16:18:20.036Z,3.70
2022-08-28T16:20:52.383Z,4.32
2022-08-28T16:23:22.281Z,4.38
2022-08-28T16:25:49.180Z,4.25
2022-08-28T16:28:16.285Z,4.45
2022-08-28T16:30:44.453Z,4.72
2022-08-28T16:33:12.717Z,5.25
2022-08-28T16:35:51.575Z,5.25
2022-08-28T16:40:49.773Z,5.40
2022-08-28T16:43:16.540Z,5.80
2022-08-28T16:45:46.167Z,4.30
2022-08-28T16:48:21.948Z,3.35
2022-08-28T16:50:49.023Z,3.45
2022-08-28T16:53:15.849Z,4.25
2022-08-28T16:55:49.044Z,3.33
2022-08-28T16:58:17.132Z,3.30
2022-08-28T17:00:52.694Z,3.28
2022-08-28T17:03:26.528Z,3.17
2022-08-28T17:05:57.177Z,3.28
2022-08-28T17:08:24.185Z,3.17
2022-08-28T17:10:50.849Z,3.05
2022-08-28T17:13:17.577Z,3.47
2022-08-28T17:15:44.590Z,3.03
2022-08-28T17:18:11.476Z,4.18
2022-08-28T17:20:56.991Z,2.83
2022-08-28T17:23:23.646Z,3.67
2022-08-28T17:25:50.422Z,3.50
2022-08-28T17:28:17.151Z,4.10
2022-08-28T17:30:43.797Z,3.72
2022-08-28T17:33:10.556Z,4.47
2022-08-28T17:35:41.881Z,4.22
2022-08-28T17:38:09.283Z,4.30
2022-08-28T17:40:36.184Z,3.55
2022-08-28T17:43:03.656Z,3.65
2022-08-28T17:45:30.257Z,4.53
2022-08-28T17:47:57.001Z,3.63
2022-08-28T17:50:23.968Z,3.80
2022-08-28T17:52:51.580Z,4.40
2022-08-28T17:55:19.278Z,4.05
2022-08-28T17:57:45.959Z,3.60
2022-08-28T18:00:16.475Z,4.07
2022-08-28T18:02:44.322Z,3.80
2022-08-28T18:05:14.428Z,4.30
2022-08-28T18:07:41.885Z,3.95
2022-08-28T18:10:10.336Z,3.85
2022-08-28T18:12:38.298Z,5.20
2022-08-28T18:15:06.344Z,4.03
2022-08-28T18:17:33.133Z,3.90
2022-08-28T18:20:00.762Z,3.60
2022-08-28T18:22:29.947Z,3.80
2022-08-28T18:24:56.807Z,4.20
2022-08-28T18:27:26.462Z,3.85
2022-08-28T18:29:53.761Z,3.90
2022-08-28T18:32:20.407Z,3.58
2022-08-28T18:34:47.196Z,3.42
2022-08-28T18:37:13.898Z,3.70
2022-08-28T18:39:40.795Z,3.50
2022-08-28T18:42:09.393Z,4.10
2022-08-28T18:44:35.956Z,3.33
2022-08-28T18:47:03.091Z,4.00
2022-08-28T18:49:29.748Z,3.80
2022-08-28T18:51:56.393Z,3.70
2022-08-28T18:54:23.299Z,4.15
2022-08-28T18:56:50.448Z,4.07
2022-08-28T18:59:18.123Z,4.05
2022-08-28T19:01:44.897Z,3.58
2022-08-28T19:04:11.918Z,4.03
2022-08-28T19:06:41.122Z,4.45
2022-08-28T19:09:07.833Z,3.92
2022-08-28T19:11:38.165Z,4.72
2022-08-28T19:14:06.318Z,4.70
2022-08-28T19:16:35.244Z,3.85
2022-08-28T19:19:03.810Z,3.45
2022-08-28T19:21:31.242Z,4.78
2022-08-28T19:23:57.917Z,3.92
2022-08-28T19:26:25.846Z,3.60
2022-08-28T19:28:53.225Z,3.80
2022-08-28T19:31:20.694Z,3.67
2022-08-28T19:33:47.804Z,3.25
2022-08-28T19:36:14.788Z,4.05
2022-08-28T19:38:41.937Z,3.85
2022-08-28T19:41:10.406Z,4.13
2022-08-28T19:43:43.005Z,4.40
2022-08-28T19:46:19.271Z,5.03
2022-08-28T19:48:46.511Z,4.88
2022-08-28T19:51:22.808Z,4.57
2022-08-28T19:53:57.171Z,4.45
2022-08-28T19:56:27.379Z,4.25
2022-08-28T19:58:55.455Z,4.28
2022-08-28T20:01:22.167Z,4.43
2022-08-28T20:03:48.987Z,3.80
2022-08-28T20:06:15.639Z,4.05
2022-08-28T20:08:42.241Z,3.78
2022-08-28T20:11:09.755Z,3.92
2022-08-28T20:13:36.600Z,3.67
2022-08-28T20:16:05.029Z,4.30
2022-08-28T20:18:32.627Z,3.97
2022-08-28T20:20:59.319Z,3.45
2022-08-28T20:23:25.962Z,3.67
2022-08-28T20:25:53.106Z,4.43
2022-08-28T20:28:19.878Z,3.58
2022-08-28T20:30:47.011Z,4.00
2022-08-28T20:33:14.179Z,4.15
2022-08-28T20:35:41.016Z,4.35
2022-08-28T20:38:07.811Z,3.42
2022-08-28T20:40:34.926Z,4.55
2022-08-28T20:43:02.334Z,3.83
2022-08-28T20:45:29.482Z,3.95
2022-08-28T20:47:56.114Z,4.38
2022-08-28T20:50:22.918Z,3.92
2022-08-28T20:52:49.964Z,4.20
2022-08-28T20:55:16.645Z,4.07
2022-08-28T20:57:43.252Z,4.10
2022-08-28T21:00:11.089Z,3.38
2022-08-28T21:02:37.915Z,3.75
2022-08-28T21:05:05.754Z,4.18
2022-08-28T21:07:34.054Z,3.85
2022-08-28T21:10:06.963Z,3.75
2022-08-28T21:12:38.178Z,3.83
2022-08-28T21:15:07.721Z,4.43
2022-08-28T21:17:34.729Z,4.03
2022-08-28T21:20:05.519Z,4.18
2022-08-28T21:22:32.987Z,3.20
2022-08-28T21:25:02.775Z,3.47
2022-08-28T21:27:29.675Z,3.72
2022-08-28T21:29:58.406Z,3.47
2022-08-28T21:32:26.200Z,4.13
2022-08-28T21:34:53.163Z,3.83
2022-08-28T21:37:19.812Z,3.90
2022-08-28T21:39:46.798Z,4.05
2022-08-28T21:42:13.654Z,3.67
2022-08-28T21:44:40.913Z,3.42
2022-08-28T21:47:18.473Z,3.63
2022-08-28T21:49:49.387Z,3.30
2022-08-28T21:52:17.390Z,3.40
2022-08-28T21:54:44.118Z,3.70
2022-08-28T21:57:10.788Z,4.03
2022-08-28T21:59:38.073Z,4.18
2022-08-28T22:02:05.196Z,4.20
2022-08-28T22:04:32.386Z,3.53
2022-08-28T22:06:59.098Z,3.88
2022-08-28T22:09:25.754Z,3.88
2022-08-28T22:11:52.643Z,4.03
2022-08-28T22:14:19.476Z,3.90
2022-08-28T22:16:46.454Z,4.32
2022-08-28T22:19:13.272Z,3.97
2022-08-28T22:21:58.753Z,4.50
2022-08-28T22:24:25.553Z,4.20
2022-08-28T22:26:57.434Z,4.13
2022-08-28T22:31:51.251Z,3.13
2022-08-28T22:34:17.932Z,3.72
2022-08-28T22:36:44.581Z,3.80
2022-08-28T22:39:11.401Z,3.92
2022-08-28T22:41:38.660Z,3.45
2022-08-28T22:44:07.007Z,4.63
2022-08-28T22:46:33.703Z,4.45
2022-08-28T22:49:00.536Z,3.50
2022-08-28T22:51:27.395Z,4.07
2022-08-28T22:53:54.464Z,3.55
2022-08-28T22:56:21.633Z,4.00
2022-08-28T22:58:48.279Z,3.47
2022-08-28T23:01:18.409Z,3.22
2022-08-28T23:03:46.256Z,3.75
2022-08-28T23:06:13.935Z,3.55
2022-08-28T23:08:41.077Z,3.50
2022-08-28T23:11:08.410Z,3.25
2022-08-28T23:13:35.847Z,3.35
2022-08-28T23:16:04.076Z,4.13
2022-08-28T23:18:41.591Z,4.00
2022-08-28T23:21:19.442Z,3.88
2022-08-28T23:23:46.329Z,3.97
2022-08-28T23:26:14.737Z,3.92
2022-08-28T23:28:42.624Z,4.10
2022-08-28T23:31:09.903Z,4.18
2022-08-28T23:33:36.733Z,3.83
2022-08-28T23:36:04.003Z,4.25
2022-08-28T23:38:30.920Z,4.40
2022-08-28T23:40:57.590Z,4.70
2022-08-28T23:43:24.414Z,5.20
2022-08-28T23:45:51.919Z,6.70
2022-08-28T23:48:18.862Z,6.22
2022-08-28T23:50:45.753Z,6.15
2022-08-28T23:53:12.390Z,5.55
2022-08-28T23:55:39.189Z,4.75
2022-08-28T23:58:06.434Z,4.95
